Flight Track Log - Related Links

Times and Time Zones

All times are in EDT time to prevent confusion due to time zone crossing. See the CTL13 flight status page for this flight to view local times or setup timezone preferences in your user account.

Time Position Orientation Groundspeed Altitude Reporting Facility
EDT Latitude Longitude Course Direction KTS MPH feet Rate Location/Type
Tue 08:09:18 PM 39.9667 -86.3000 358° North 177 204 2,500  Level Indianapolis TRACON
Tue 08:11:00 PM 40.0343 -86.2566 26° Northeast  Level FlightAware Approximate
Tue 08:13:00 PM 40.1464 -86.3294 346° North 180 207 3,500  Level Chicago Center
Tue 08:14:02 PM 40.1911 -86.3411 349° North 174 200 4,200 298 Climbing Chicago Center
Tue 08:15:01 PM 40.2400 -86.3556 347° North 175 201 4,100 -48 Descending Chicago Center
Tue 08:16:06 PM 40.2869 -86.3656 351° North 175 201 4,100 -50 Level Chicago Center
Tue 08:17:02 PM 40.3372 -86.3803 347° North 177 204 4,000 -52 Descending Chicago Center
Tue 08:18:00 PM 40.3358 -86.3067 346° North  Level FlightAware Approximate
Tue 08:18:02 PM 40.3869 -86.3942 348° North 176 203 4,000  Level Chicago Center
Tue 08:19:03 PM 40.4344 -86.4022 353° North 176 203 4,000 -295 Level Chicago Center
Tue 08:20:04 PM 40.4881 -86.4244 343° North 191 220 3,400 -409 Descending Chicago Center
Tue 08:21:15 PM 40.5403 -86.4456 343° North 187 215 3,100 -198 Descending Chicago Center
Tue 08:22:05 PM 40.5781 -86.4764 328° Northwest 174 200 3,000 -55 Descending Chicago Center
Tue 08:23:05 PM 40.6189 -86.5008 336° Northwest 168 193 3,000  Level Chicago Center
Tue 08:24:06 PM 40.6639 -86.5281 335° Northwest 169 194 3,000  Level Chicago Center
Tue 08:25:07 PM 40.7025 -86.5578 330° Northwest 167 192 3,000  Level Chicago Center
Tue 08:26:07 PM 40.7408 -86.5931 325° Northwest 164 189 3,000  Level Chicago Center
Tue 08:27:08 PM 40.7772 -86.6283 324° Northwest 165 190 3,000 50 Level Chicago Center
Tue 08:28:08 PM 40.8111 -86.6689 318° Northwest 159 183 3,100 84 Climbing Chicago Center
Tue 08:29:31 PM 40.8467 -86.7150 316° Northwest 155 178 3,200 41 Climbing Chicago Center
Tue 08:30:33 PM 40.8761 -86.7692 306° West 153 176 3,200 -49 Level Chicago Center
Tue 08:31:34 PM 40.9061 -86.8100 314° West 153 176 3,100  Descending Chicago Center
Tue 08:32:36 PM 40.9339 -86.8492 313° West 151 174 3,200  Climbing Chicago Center
Tue 08:33:38 PM 40.9642 -86.8867 317° Northwest 149 171 3,100 -97 Descending Chicago Center
Tue 08:34:40 PM 40.9933 -86.9256 315° West 150 173 3,000  Descending Chicago Center
Tue 08:35:42 PM 41.0258 -86.9747 311° West 149 171 3,100  Climbing Chicago Center
Tue 08:36:44 PM 41.0575 -87.0183 314° West 156 180 3,000  Descending Chicago Center
Tue 08:37:46 PM 41.0933 -87.0600 319° Northwest 164 189 3,100 49 Climbing Chicago Center
Tue 08:38:47 PM 41.1300 -87.1064 316° Northwest 174 200 3,100 -49 Level Chicago Center
Tue 08:39:49 PM 41.1664 -87.1531 316° Northwest 179 206 3,000 -48 Descending Chicago Center
Tue 08:40:51 PM 41.2031 -87.1989 317° Northwest 181 208 3,000  Level Chicago Center
Tue 08:41:53 PM 41.2464 -87.2542 316° Northwest 182 209 3,000 48 Level Chicago Center
Tue 08:42:55 PM 41.2822 -87.2983 317° Northwest 180 207 3,100 48 Climbing Chicago Center
Tue 08:43:57 PM 41.3203 -87.3419 319° Northwest 180 207 3,100  Level Chicago Center
Tue 08:44:59 PM 41.3686 -87.3708 336° Northwest 188 216 3,100 -48 Level Chicago Center
Tue 08:46:01 PM 41.4161 -87.4000 335° Northwest 190 219 3,000  Descending Chicago Center
Tue 08:47:02 PM 41.4719 -87.4350 335° Northwest 189 217 3,100 49 Climbing Chicago Center
Tue 08:48:04 PM 41.5161 -87.4619 335° Northwest 184 212 3,100  Level Chicago Center
Tue 08:49:06 PM 41.5594 -87.4889 335° Northwest 179 206 3,100  Level Chicago Center
Tue 08:50:08 PM 41.6025 -87.5131 337° Northwest 174 200 3,100  Level Chicago Center
Tue 08:51:10 PM 41.6383 -87.5486 323° Northwest 171 197 3,100 -145 Level Chicago Center
Tue 08:52:12 PM 41.6747 -87.5989 314° West 162 186 2,800 -242 Descending Chicago Center
Tue 08:53:14 PM 41.7081 -87.6436 315° West 164 189 2,600 -488 Descending Chicago Center
Tue 08:54:15 PM 41.7378 -87.6900 311° West 166 191 1,800 -634 Descending Chicago Center
Tue 08:55:17 PM 41.7675 -87.7311 314° West 163 188 1,300 -339 Descending Chicago Center
Tue 08:56:19 PM 41.7919 -87.7686 311° West 159 183 1,100 -194 Descending Chicago Center

Login

Don't have an account? Register now (free) for customized features, flight alerts, and more!